sensor_id;sensor_type;location;lat;lon;timestamp;P1;durP1;ratioP1;P2;durP2;ratioP2
51556;SDS011;38766;53.194;5.532;2024-02-15T00:01:05;36.35;;;5.63;;
51556;SDS011;38766;53.194;5.532;2024-02-15T00:03:31;27.10;;;6.05;;
51556;SDS011;38766;53.194;5.532;2024-02-15T00:05:57;20.40;;;5.45;;
51556;SDS011;38766;53.194;5.532;2024-02-15T00:08:23;32.67;;;6.13;;
51556;SDS011;38766;53.194;5.532;2024-02-15T00:10:51;28.30;;;5.53;;
51556;SDS011;38766;53.194;5.532;2024-02-15T00:13:18;24.23;;;5.43;;
51556;SDS011;38766;53.194;5.532;2024-02-15T00:15:44;23.60;;;5.40;;
51556;SDS011;38766;53.194;5.532;2024-02-15T00:18:13;29.73;;;5.63;;
51556;SDS011;38766;53.194;5.532;2024-02-15T00:20:39;21.88;;;5.25;;
51556;SDS011;38766;53.194;5.532;2024-02-15T00:23:05;21.88;;;4.65;;
51556;SDS011;38766;53.194;5.532;2024-02-15T00:25:31;34.85;;;6.18;;
51556;SDS011;38766;53.194;5.532;2024-02-15T00:27:57;25.67;;;6.18;;
51556;SDS011;38766;53.194;5.532;2024-02-15T00:30:25;26.95;;;5.95;;
51556;SDS011;38766;53.194;5.532;2024-02-15T00:32:52;25.17;;;5.35;;
51556;SDS011;38766;53.194;5.532;2024-02-15T00:35:18;25.58;;;5.28;;
51556;SDS011;38766;53.194;5.532;2024-02-15T00:37:44;25.13;;;4.72;;
51556;SDS011;38766;53.194;5.532;2024-02-15T00:40:10;16.25;;;4.82;;
51556;SDS011;38766;53.194;5.532;2024-02-15T00:42:36;20.25;;;5.07;;
51556;SDS011;38766;53.194;5.532;2024-02-15T00:45:02;20.55;;;5.55;;
51556;SDS011;38766;53.194;5.532;2024-02-15T00:47:29;31.85;;;6.13;;
51556;SDS011;38766;53.194;5.532;2024-02-15T00:49:55;26.25;;;5.78;;
51556;SDS011;38766;53.194;5.532;2024-02-15T00:52:21;19.02;;;5.40;;
51556;SDS011;38766;53.194;5.532;2024-02-15T00:54:47;18.90;;;4.93;;
51556;SDS011;38766;53.194;5.532;2024-02-15T00:57:13;31.17;;;6.40;;
51556;SDS011;38766;53.194;5.532;2024-02-15T00:59:38;23.15;;;5.45;;
51556;SDS011;38766;53.194;5.532;2024-02-15T01:02:04;12.98;;;4.70;;
51556;SDS011;38766;53.194;5.532;2024-02-15T01:04:33;22.88;;;5.38;;
51556;SDS011;38766;53.194;5.532;2024-02-15T01:06:59;24.08;;;5.15;;
51556;SDS011;38766;53.194;5.532;2024-02-15T01:09:25;20.67;;;5.10;;
51556;SDS011;38766;53.194;5.532;2024-02-15T01:11:50;26.85;;;5.28;;
51556;SDS011;38766;53.194;5.532;2024-02-15T01:14:16;18.70;;;5.13;;
51556;SDS011;38766;53.194;5.532;2024-02-15T01:16:42;22.75;;;5.95;;
51556;SDS011;38766;53.194;5.532;2024-02-15T01:19:09;26.50;;;5.45;;
51556;SDS011;38766;53.194;5.532;2024-02-15T01:21:35;22.45;;;5.68;;
51556;SDS011;38766;53.194;5.532;2024-02-15T01:24:01;24.45;;;5.38;;
51556;SDS011;38766;53.194;5.532;2024-02-15T01:26:28;21.30;;;5.22;;
51556;SDS011;38766;53.194;5.532;2024-02-15T01:28:54;20.67;;;6.00;;
51556;SDS011;38766;53.194;5.532;2024-02-15T01:31:20;18.45;;;5.72;;
51556;SDS011;38766;53.194;5.532;2024-02-15T01:33:46;22.15;;;5.88;;
51556;SDS011;38766;53.194;5.532;2024-02-15T01:36:15;25.80;;;5.78;;
51556;SDS011;38766;53.194;5.532;2024-02-15T01:38:41;20.17;;;6.00;;
51556;SDS011;38766;53.194;5.532;2024-02-15T01:41:07;25.60;;;6.38;;
51556;SDS011;38766;53.194;5.532;2024-02-15T01:43:33;25.67;;;6.97;;
51556;SDS011;38766;53.194;5.532;2024-02-15T01:46:00;26.27;;;7.43;;
51556;SDS011;38766;53.194;5.532;2024-02-15T01:48:29;26.77;;;7.03;;
51556;SDS011;38766;53.194;5.532;2024-02-15T01:50:55;18.98;;;7.35;;
51556;SDS011;38766;53.194;5.532;2024-02-15T01:53:23;21.45;;;8.38;;
51556;SDS011;38766;53.194;5.532;2024-02-15T01:55:49;21.08;;;7.38;;
51556;SDS011;38766;53.194;5.532;2024-02-15T01:58:18;31.00;;;8.48;;
51556;SDS011;38766;53.194;5.532;2024-02-15T02:00:44;23.48;;;8.68;;
51556;SDS011;38766;53.194;5.532;2024-02-15T02:03:10;26.88;;;9.75;;
51556;SDS011;38766;53.194;5.532;2024-02-15T02:05:39;28.67;;;8.60;;
51556;SDS011;38766;53.194;5.532;2024-02-15T02:08:06;28.92;;;10.02;;
51556;SDS011;38766;53.194;5.532;2024-02-15T02:10:35;35.10;;;9.95;;
51556;SDS011;38766;53.194;5.532;2024-02-15T02:13:04;33.17;;;10.25;;
51556;SDS011;38766;53.194;5.532;2024-02-15T02:15:33;31.60;;;9.18;;
51556;SDS011;38766;53.194;5.532;2024-02-15T02:18:02;34.17;;;10.25;;
51556;SDS011;38766;53.194;5.532;2024-02-15T02:20:33;34.17;;;10.23;;
51556;SDS011;38766;53.194;5.532;2024-02-15T02:25:32;27.95;;;10.20;;
51556;SDS011;38766;53.194;5.532;2024-02-15T02:27:59;26.58;;;9.77;;
51556;SDS011;38766;53.194;5.532;2024-02-15T02:30:25;37.40;;;11.35;;
51556;SDS011;38766;53.194;5.532;2024-02-15T02:32:54;30.98;;;10.50;;
51556;SDS011;38766;53.194;5.532;2024-02-15T02:35:21;33.45;;;11.25;;
51556;SDS011;38766;53.194;5.532;2024-02-15T02:37:47;35.30;;;10.07;;
51556;SDS011;38766;53.194;5.532;2024-02-15T02:40:13;33.90;;;9.45;;
51556;SDS011;38766;53.194;5.532;2024-02-15T02:42:48;28.95;;;9.00;;
51556;SDS011;38766;53.194;5.532;2024-02-15T02:45:19;40.13;;;9.35;;
51556;SDS011;38766;53.194;5.532;2024-02-15T02:47:51;33.67;;;8.70;;
51556;SDS011;38766;53.194;5.532;2024-02-15T02:50:18;35.47;;;8.55;;
51556;SDS011;38766;53.194;5.532;2024-02-15T02:52:44;32.28;;;8.13;;
51556;SDS011;38766;53.194;5.532;2024-02-15T02:55:09;30.30;;;7.90;;
51556;SDS011;38766;53.194;5.532;2024-02-15T02:57:36;27.77;;;6.53;;
51556;SDS011;38766;53.194;5.532;2024-02-15T03:00:05;40.05;;;8.00;;
51556;SDS011;38766;53.194;5.532;2024-02-15T03:02:37;36.70;;;7.10;;
51556;SDS011;38766;53.194;5.532;2024-02-15T03:05:04;32.70;;;7.90;;
51556;SDS011;38766;53.194;5.532;2024-02-15T03:07:34;23.35;;;7.10;;
51556;SDS011;38766;53.194;5.532;2024-02-15T03:10:03;32.70;;;6.50;;
51556;SDS011;38766;53.194;5.532;2024-02-15T03:12:33;30.05;;;6.47;;
51556;SDS011;38766;53.194;5.532;2024-02-15T03:15:06;26.15;;;6.80;;
51556;SDS011;38766;53.194;5.532;2024-02-15T03:17:43;27.60;;;6.00;;
51556;SDS011;38766;53.194;5.532;2024-02-15T03:20:11;30.80;;;6.27;;
51556;SDS011;38766;53.194;5.532;2024-02-15T03:22:47;31.77;;;6.07;;
51556;SDS011;38766;53.194;5.532;2024-02-15T03:25:17;20.42;;;5.82;;
51556;SDS011;38766;53.194;5.532;2024-02-15T03:27:42;22.50;;;5.57;;
51556;SDS011;38766;53.194;5.532;2024-02-15T03:30:08;19.80;;;5.05;;
51556;SDS011;38766;53.194;5.532;2024-02-15T03:32:35;22.70;;;5.70;;
51556;SDS011;38766;53.194;5.532;2024-02-15T03:35:02;17.45;;;4.90;;
51556;SDS011;38766;53.194;5.532;2024-02-15T03:37:28;23.00;;;5.93;;
51556;SDS011;38766;53.194;5.532;2024-02-15T03:39:54;24.45;;;5.25;;
51556;SDS011;38766;53.194;5.532;2024-02-15T03:42:20;22.50;;;6.18;;
51556;SDS011;38766;53.194;5.532;2024-02-15T03:44:46;24.60;;;6.03;;
51556;SDS011;38766;53.194;5.532;2024-02-15T03:47:13;24.58;;;6.32;;
51556;SDS011;38766;53.194;5.532;2024-02-15T03:49:40;22.67;;;7.03;;
51556;SDS011;38766;53.194;5.532;2024-02-15T03:52:07;32.35;;;7.63;;
51556;SDS011;38766;53.194;5.532;2024-02-15T03:54:35;19.83;;;7.15;;
51556;SDS011;38766;53.194;5.532;2024-02-15T03:57:01;26.23;;;7.65;;
51556;SDS011;38766;53.194;5.532;2024-02-15T03:59:27;27.67;;;6.93;;
51556;SDS011;38766;53.194;5.532;2024-02-15T04:01:53;27.38;;;7.03;;
51556;SDS011;38766;53.194;5.532;2024-02-15T04:04:19;23.13;;;7.28;;
51556;SDS011;38766;53.194;5.532;2024-02-15T04:06:51;27.08;;;8.02;;
51556;SDS011;38766;53.194;5.532;2024-02-15T04:09:17;29.48;;;10.02;;
51556;SDS011;38766;53.194;5.532;2024-02-15T04:11:52;37.08;;;12.30;;
51556;SDS011;38766;53.194;5.532;2024-02-15T04:14:18;38.63;;;12.00;;
51556;SDS011;38766;53.194;5.532;2024-02-15T04:16:44;35.00;;;12.13;;
51556;SDS011;38766;53.194;5.532;2024-02-15T04:19:10;33.65;;;13.20;;
51556;SDS011;38766;53.194;5.532;2024-02-15T04:21:36;35.50;;;12.45;;
51556;SDS011;38766;53.194;5.532;2024-02-15T04:24:02;28.67;;;12.10;;
51556;SDS011;38766;53.194;5.532;2024-02-15T04:26:28;31.83;;;11.45;;
51556;SDS011;38766;53.194;5.532;2024-02-15T04:28:55;28.80;;;11.35;;
51556;SDS011;38766;53.194;5.532;2024-02-15T04:31:21;30.42;;;11.40;;
51556;SDS011;38766;53.194;5.532;2024-02-15T04:33:53;34.22;;;11.07;;
51556;SDS011;38766;53.194;5.532;2024-02-15T04:36:19;31.60;;;11.82;;
51556;SDS011;38766;53.194;5.532;2024-02-15T04:38:48;32.53;;;12.07;;
51556;SDS011;38766;53.194;5.532;2024-02-15T04:41:15;41.72;;;14.02;;
51556;SDS011;38766;53.194;5.532;2024-02-15T04:43:48;33.83;;;12.73;;
51556;SDS011;38766;53.194;5.532;2024-02-15T04:46:17;31.92;;;12.80;;
51556;SDS011;38766;53.194;5.532;2024-02-15T04:48:46;36.20;;;14.25;;
51556;SDS011;38766;53.194;5.532;2024-02-15T04:51:15;41.03;;;14.77;;
51556;SDS011;38766;53.194;5.532;2024-02-15T04:53:44;41.00;;;15.23;;
51556;SDS011;38766;53.194;5.532;2024-02-15T04:56:11;40.55;;;14.93;;
51556;SDS011;38766;53.194;5.532;2024-02-15T04:58:41;34.70;;;14.90;;
51556;SDS011;38766;53.194;5.532;2024-02-15T05:01:13;38.22;;;15.63;;
51556;SDS011;38766;53.194;5.532;2024-02-15T05:03:42;40.22;;;16.52;;
51556;SDS011;38766;53.194;5.532;2024-02-15T05:06:08;39.35;;;16.77;;
51556;SDS011;38766;53.194;5.532;2024-02-15T05:08:35;34.80;;;15.88;;
51556;SDS011;38766;53.194;5.532;2024-02-15T05:11:03;37.63;;;17.45;;
51556;SDS011;38766;53.194;5.532;2024-02-15T05:13:30;40.17;;;18.10;;
51556;SDS011;38766;53.194;5.532;2024-02-15T05:15:56;41.53;;;17.38;;
51556;SDS011;38766;53.194;5.532;2024-02-15T05:18:21;43.20;;;17.25;;
51556;SDS011;38766;53.194;5.532;2024-02-15T05:20:47;37.13;;;18.02;;
51556;SDS011;38766;53.194;5.532;2024-02-15T05:23:13;39.70;;;18.10;;
51556;SDS011;38766;53.194;5.532;2024-02-15T05:25:39;42.45;;;19.08;;
51556;SDS011;38766;53.194;5.532;2024-02-15T05:28:06;38.38;;;18.50;;
51556;SDS011;38766;53.194;5.532;2024-02-15T05:30:33;41.05;;;18.55;;
51556;SDS011;38766;53.194;5.532;2024-02-15T05:32:59;38.58;;;19.25;;
51556;SDS011;38766;53.194;5.532;2024-02-15T05:35:25;42.75;;;19.42;;
51556;SDS011;38766;53.194;5.532;2024-02-15T05:37:52;35.03;;;17.50;;
51556;SDS011;38766;53.194;5.532;2024-02-15T05:40:18;39.30;;;19.25;;
51556;SDS011;38766;53.194;5.532;2024-02-15T05:42:44;41.35;;;19.05;;
51556;SDS011;38766;53.194;5.532;2024-02-15T05:45:29;34.13;;;18.17;;
51556;SDS011;38766;53.194;5.532;2024-02-15T05:47:57;41.92;;;19.65;;
51556;SDS011;38766;53.194;5.532;2024-02-15T05:50:23;39.55;;;18.45;;
51556;SDS011;38766;53.194;5.532;2024-02-15T05:52:49;38.08;;;18.85;;
51556;SDS011;38766;53.194;5.532;2024-02-15T05:55:17;33.38;;;18.45;;
51556;SDS011;38766;53.194;5.532;2024-02-15T05:57:43;42.75;;;20.17;;
51556;SDS011;38766;53.194;5.532;2024-02-15T06:00:10;34.75;;;19.02;;
51556;SDS011;38766;53.194;5.532;2024-02-15T06:02:36;39.10;;;20.20;;
51556;SDS011;38766;53.194;5.532;2024-02-15T06:05:02;35.60;;;19.63;;
51556;SDS011;38766;53.194;5.532;2024-02-15T06:07:32;47.08;;;20.15;;
51556;SDS011;38766;53.194;5.532;2024-02-15T06:09:58;42.08;;;21.98;;
51556;SDS011;38766;53.194;5.532;2024-02-15T06:12:28;41.00;;;21.55;;
51556;SDS011;38766;53.194;5.532;2024-02-15T06:14:54;54.10;;;23.30;;
51556;SDS011;38766;53.194;5.532;2024-02-15T06:17:20;45.80;;;23.70;;
51556;SDS011;38766;53.194;5.532;2024-02-15T06:19:46;50.60;;;24.65;;
51556;SDS011;38766;53.194;5.532;2024-02-15T06:22:11;43.63;;;23.20;;
51556;SDS011;38766;53.194;5.532;2024-02-15T06:24:38;57.05;;;25.15;;
51556;SDS011;38766;53.194;5.532;2024-02-15T06:27:04;54.83;;;23.38;;
51556;SDS011;38766;53.194;5.532;2024-02-15T06:29:30;51.92;;;24.30;;
51556;SDS011;38766;53.194;5.532;2024-02-15T06:32:14;45.80;;;23.80;;
51556;SDS011;38766;53.194;5.532;2024-02-15T06:34:59;50.50;;;23.30;;
51556;SDS011;38766;53.194;5.532;2024-02-15T06:37:43;50.97;;;23.83;;
51556;SDS011;38766;53.194;5.532;2024-02-15T06:40:27;48.75;;;23.67;;
51556;SDS011;38766;53.194;5.532;2024-02-15T06:42:53;52.95;;;23.15;;
51556;SDS011;38766;53.194;5.532;2024-02-15T06:45:19;45.42;;;22.52;;
51556;SDS011;38766;53.194;5.532;2024-02-15T06:47:45;48.58;;;24.20;;
51556;SDS011;38766;53.194;5.532;2024-02-15T06:50:11;49.53;;;23.52;;
51556;SDS011;38766;53.194;5.532;2024-02-15T06:52:38;48.60;;;25.05;;
51556;SDS011;38766;53.194;5.532;2024-02-15T06:55:06;52.03;;;25.05;;
51556;SDS011;38766;53.194;5.532;2024-02-15T06:57:33;55.35;;;24.73;;
51556;SDS011;38766;53.194;5.532;2024-02-15T07:00:02;45.05;;;22.98;;
51556;SDS011;38766;53.194;5.532;2024-02-15T07:02:29;50.25;;;23.20;;
51556;SDS011;38766;53.194;5.532;2024-02-15T07:04:57;54.38;;;25.05;;
51556;SDS011;38766;53.194;5.532;2024-02-15T07:07:23;50.80;;;24.80;;
51556;SDS011;38766;53.194;5.532;2024-02-15T07:09:49;50.63;;;24.17;;
51556;SDS011;38766;53.194;5.532;2024-02-15T07:12:14;53.42;;;25.02;;
51556;SDS011;38766;53.194;5.532;2024-02-15T07:14:40;62.88;;;27.90;;
51556;SDS011;38766;53.194;5.532;2024-02-15T07:17:05;53.78;;;26.90;;
51556;SDS011;38766;53.194;5.532;2024-02-15T07:19:32;52.25;;;25.92;;
51556;SDS011;38766;53.194;5.532;2024-02-15T07:22:01;54.55;;;27.63;;
51556;SDS011;38766;53.194;5.532;2024-02-15T07:24:27;51.33;;;26.10;;
51556;SDS011;38766;53.194;5.532;2024-02-15T07:26:53;58.60;;;26.40;;
51556;SDS011;38766;53.194;5.532;2024-02-15T07:29:20;52.35;;;25.50;;
51556;SDS011;38766;53.194;5.532;2024-02-15T07:31:48;52.92;;;25.65;;
51556;SDS011;38766;53.194;5.532;2024-02-15T07:34:14;48.60;;;25.55;;
51556;SDS011;38766;53.194;5.532;2024-02-15T07:36:42;48.88;;;24.35;;
51556;SDS011;38766;53.194;5.532;2024-02-15T07:39:08;56.13;;;25.23;;
51556;SDS011;38766;53.194;5.532;2024-02-15T07:41:37;57.50;;;25.10;;
51556;SDS011;38766;53.194;5.532;2024-02-15T07:44:03;45.92;;;25.13;;
51556;SDS011;38766;53.194;5.532;2024-02-15T07:46:29;46.05;;;24.90;;
51556;SDS011;38766;53.194;5.532;2024-02-15T07:48:55;50.00;;;23.92;;
51556;SDS011;38766;53.194;5.532;2024-02-15T07:51:21;50.00;;;24.40;;
51556;SDS011;38766;53.194;5.532;2024-02-15T07:53:47;46.38;;;25.23;;
51556;SDS011;38766;53.194;5.532;2024-02-15T07:56:15;48.85;;;25.38;;
51556;SDS011;38766;53.194;5.532;2024-02-15T07:58:44;48.78;;;25.95;;
51556;SDS011;38766;53.194;5.532;2024-02-15T08:01:14;49.58;;;25.02;;
51556;SDS011;38766;53.194;5.532;2024-02-15T08:03:41;56.50;;;28.15;;
51556;SDS011;38766;53.194;5.532;2024-02-15T08:06:10;53.88;;;27.50;;
51556;SDS011;38766;53.194;5.532;2024-02-15T08:08:38;55.08;;;26.63;;
51556;SDS011;38766;53.194;5.532;2024-02-15T08:11:06;56.05;;;27.58;;
51556;SDS011;38766;53.194;5.532;2024-02-15T08:13:42;59.95;;;28.20;;
51556;SDS011;38766;53.194;5.532;2024-02-15T08:16:15;57.17;;;27.58;;
51556;SDS011;38766;53.194;5.532;2024-02-15T08:18:41;62.78;;;29.50;;
51556;SDS011;38766;53.194;5.532;2024-02-15T08:21:09;63.95;;;29.38;;
51556;SDS011;38766;53.194;5.532;2024-02-15T08:23:35;60.20;;;28.23;;
51556;SDS011;38766;53.194;5.532;2024-02-15T08:26:01;56.38;;;27.10;;
51556;SDS011;38766;53.194;5.532;2024-02-15T08:28:27;60.28;;;29.38;;
51556;SDS011;38766;53.194;5.532;2024-02-15T08:30:54;57.30;;;27.95;;
51556;SDS011;38766;53.194;5.532;2024-02-15T08:33:21;57.50;;;29.05;;
51556;SDS011;38766;53.194;5.532;2024-02-15T08:35:47;60.85;;;29.23;;
51556;SDS011;38766;53.194;5.532;2024-02-15T08:38:12;61.78;;;29.63;;
51556;SDS011;38766;53.194;5.532;2024-02-15T08:40:38;58.35;;;30.27;;
51556;SDS011;38766;53.194;5.532;2024-02-15T08:43:03;61.10;;;29.23;;
51556;SDS011;38766;53.194;5.532;2024-02-15T08:45:29;58.22;;;29.88;;
51556;SDS011;38766;53.194;5.532;2024-02-15T08:47:55;58.75;;;30.02;;
51556;SDS011;38766;53.194;5.532;2024-02-15T08:50:20;59.88;;;28.95;;
51556;SDS011;38766;53.194;5.532;2024-02-15T08:52:48;53.70;;;28.25;;
51556;SDS011;38766;53.194;5.532;2024-02-15T08:55:14;53.58;;;27.13;;
51556;SDS011;38766;53.194;5.532;2024-02-15T08:57:40;54.90;;;27.67;;
51556;SDS011;38766;53.194;5.532;2024-02-15T09:00:06;60.05;;;28.70;;
51556;SDS011;38766;53.194;5.532;2024-02-15T09:02:47;56.28;;;27.20;;
51556;SDS011;38766;53.194;5.532;2024-02-15T09:05:17;52.63;;;26.13;;
51556;SDS011;38766;53.194;5.532;2024-02-15T09:07:44;54.15;;;25.83;;
51556;SDS011;38766;53.194;5.532;2024-02-15T09:10:14;52.17;;;27.35;;
51556;SDS011;38766;53.194;5.532;2024-02-15T09:12:42;58.35;;;27.95;;
51556;SDS011;38766;53.194;5.532;2024-02-15T09:15:10;53.85;;;27.35;;
51556;SDS011;38766;53.194;5.532;2024-02-15T09:17:36;54.47;;;27.23;;
51556;SDS011;38766;53.194;5.532;2024-02-15T09:20:06;56.45;;;26.48;;
51556;SDS011;38766;53.194;5.532;2024-02-15T09:22:48;56.20;;;27.23;;
51556;SDS011;38766;53.194;5.532;2024-02-15T09:25:16;59.50;;;28.95;;
51556;SDS011;38766;53.194;5.532;2024-02-15T09:27:42;60.83;;;27.23;;
51556;SDS011;38766;53.194;5.532;2024-02-15T09:30:09;50.95;;;27.52;;
51556;SDS011;38766;53.194;5.532;2024-02-15T09:32:35;55.65;;;27.73;;
51556;SDS011;38766;53.194;5.532;2024-02-15T09:35:01;53.78;;;26.55;;
51556;SDS011;38766;53.194;5.532;2024-02-15T09:37:27;48.83;;;26.00;;
51556;SDS011;38766;53.194;5.532;2024-02-15T09:39:53;41.38;;;22.70;;
51556;SDS011;38766;53.194;5.532;2024-02-15T09:42:20;49.00;;;24.23;;
51556;SDS011;38766;53.194;5.532;2024-02-15T09:44:46;46.80;;;25.20;;
51556;SDS011;38766;53.194;5.532;2024-02-15T09:47:12;46.67;;;25.25;;
51556;SDS011;38766;53.194;5.532;2024-02-15T09:49:40;56.22;;;24.77;;
51556;SDS011;38766;53.194;5.532;2024-02-15T09:52:07;45.70;;;24.83;;
51556;SDS011;38766;53.194;5.532;2024-02-15T09:54:39;47.25;;;24.48;;
51556;SDS011;38766;53.194;5.532;2024-02-15T09:57:08;42.83;;;23.60;;
51556;SDS011;38766;53.194;5.532;2024-02-15T09:59:35;50.55;;;24.42;;
51556;SDS011;38766;53.194;5.532;2024-02-15T10:02:01;46.90;;;24.63;;
51556;SDS011;38766;53.194;5.532;2024-02-15T10:04:27;46.58;;;22.40;;
51556;SDS011;38766;53.194;5.532;2024-02-15T10:06:53;44.63;;;23.77;;
51556;SDS011;38766;53.194;5.532;2024-02-15T10:09:23;40.45;;;21.45;;
51556;SDS011;38766;53.194;5.532;2024-02-15T10:11:55;36.40;;;20.75;;
51556;SDS011;38766;53.194;5.532;2024-02-15T10:14:25;41.08;;;19.95;;
51556;SDS011;38766;53.194;5.532;2024-02-15T10:16:54;33.60;;;18.65;;
51556;SDS011;38766;53.194;5.532;2024-02-15T10:19:21;36.22;;;19.40;;
51556;SDS011;38766;53.194;5.532;2024-02-15T10:21:54;35.00;;;18.30;;
51556;SDS011;38766;53.194;5.532;2024-02-15T10:24:23;28.60;;;16.42;;
51556;SDS011;38766;53.194;5.532;2024-02-15T10:26:59;26.73;;;15.27;;
51556;SDS011;38766;53.194;5.532;2024-02-15T10:29:29;30.00;;;16.90;;
51556;SDS011;38766;53.194;5.532;2024-02-15T10:31:59;27.27;;;15.88;;
51556;SDS011;38766;53.194;5.532;2024-02-15T10:34:26;25.25;;;14.93;;
51556;SDS011;38766;53.194;5.532;2024-02-15T10:36:53;26.38;;;14.43;;
51556;SDS011;38766;53.194;5.532;2024-02-15T10:39:21;23.85;;;12.95;;
51556;SDS011;38766;53.194;5.532;2024-02-15T10:41:52;20.98;;;12.45;;
51556;SDS011;38766;53.194;5.532;2024-02-15T10:44:22;23.95;;;13.55;;
51556;SDS011;38766;53.194;5.532;2024-02-15T10:46:51;24.80;;;13.45;;
51556;SDS011;38766;53.194;5.532;2024-02-15T10:49:20;23.25;;;13.35;;
51556;SDS011;38766;53.194;5.532;2024-02-15T10:51:49;24.00;;;14.63;;
51556;SDS011;38766;53.194;5.532;2024-02-15T10:57:05;24.75;;;14.68;;
51556;SDS011;38766;53.194;5.532;2024-02-15T10:59:32;24.92;;;14.45;;
51556;SDS011;38766;53.194;5.532;2024-02-15T11:02:02;24.38;;;14.85;;
51556;SDS011;38766;53.194;5.532;2024-02-15T11:04:52;26.15;;;16.17;;
51556;SDS011;38766;53.194;5.532;2024-02-15T11:07:25;25.67;;;15.05;;
51556;SDS011;38766;53.194;5.532;2024-02-15T11:09:56;27.95;;;16.80;;
51556;SDS011;38766;53.194;5.532;2024-02-15T11:12:24;26.90;;;16.08;;
51556;SDS011;38766;53.194;5.532;2024-02-15T11:14:51;29.08;;;16.77;;
51556;SDS011;38766;53.194;5.532;2024-02-15T11:20:05;35.60;;;17.10;;
51556;SDS011;38766;53.194;5.532;2024-02-15T11:22:35;38.38;;;17.45;;
51556;SDS011;38766;53.194;5.532;2024-02-15T11:25:02;42.58;;;19.08;;
51556;SDS011;38766;53.194;5.532;2024-02-15T11:27:36;38.30;;;18.02;;
51556;SDS011;38766;53.194;5.532;2024-02-15T11:30:04;43.33;;;19.67;;
51556;SDS011;38766;53.194;5.532;2024-02-15T11:32:46;51.85;;;21.02;;
51556;SDS011;38766;53.194;5.532;2024-02-15T11:35:17;48.50;;;20.95;;
51556;SDS011;38766;53.194;5.532;2024-02-15T11:40:17;48.85;;;21.20;;
51556;SDS011;38766;53.194;5.532;2024-02-15T11:42:44;50.05;;;21.38;;
51556;SDS011;38766;53.194;5.532;2024-02-15T11:45:11;49.72;;;20.33;;
51556;SDS011;38766;53.194;5.532;2024-02-15T11:47:38;48.75;;;21.17;;
51556;SDS011;38766;53.194;5.532;2024-02-15T11:50:09;57.75;;;22.88;;
51556;SDS011;38766;53.194;5.532;2024-02-15T11:52:40;56.53;;;22.15;;
51556;SDS011;38766;53.194;5.532;2024-02-15T11:55:07;68.38;;;23.70;;
51556;SDS011;38766;53.194;5.532;2024-02-15T11:57:38;63.75;;;23.77;;
51556;SDS011;38766;53.194;5.532;2024-02-15T12:00:25;64.78;;;24.58;;
51556;SDS011;38766;53.194;5.532;2024-02-15T12:03:10;62.58;;;22.73;;
51556;SDS011;38766;53.194;5.532;2024-02-15T12:05:57;61.92;;;24.52;;
51556;SDS011;38766;53.194;5.532;2024-02-15T12:08:47;53.63;;;23.38;;
51556;SDS011;38766;53.194;5.532;2024-02-15T12:11:33;63.40;;;23.90;;
51556;SDS011;38766;53.194;5.532;2024-02-15T12:14:18;59.88;;;24.63;;
51556;SDS011;38766;53.194;5.532;2024-02-15T12:17:03;59.10;;;24.33;;
51556;SDS011;38766;53.194;5.532;2024-02-15T12:19:49;56.95;;;24.73;;
51556;SDS011;38766;53.194;5.532;2024-02-15T12:22:35;53.97;;;22.88;;
51556;SDS011;38766;53.194;5.532;2024-02-15T12:25:07;46.53;;;21.42;;
51556;SDS011;38766;53.194;5.532;2024-02-15T12:27:39;44.30;;;21.85;;
51556;SDS011;38766;53.194;5.532;2024-02-15T12:30:32;46.63;;;22.75;;
51556;SDS011;38766;53.194;5.532;2024-02-15T12:33:13;50.65;;;24.60;;
51556;SDS011;38766;53.194;5.532;2024-02-15T12:35:45;47.70;;;24.85;;
51556;SDS011;38766;53.194;5.532;2024-02-15T12:38:11;55.42;;;25.77;;
51556;SDS011;38766;53.194;5.532;2024-02-15T12:40:41;57.67;;;26.45;;
51556;SDS011;38766;53.194;5.532;2024-02-15T12:43:07;71.75;;;28.90;;
51556;SDS011;38766;53.194;5.532;2024-02-15T12:45:37;69.10;;;28.50;;
51556;SDS011;38766;53.194;5.532;2024-02-15T12:48:05;66.65;;;28.70;;
51556;SDS011;38766;53.194;5.532;2024-02-15T12:50:32;73.95;;;29.90;;
51556;SDS011;38766;53.194;5.532;2024-02-15T12:52:59;63.15;;;28.00;;
51556;SDS011;38766;53.194;5.532;2024-02-15T12:55:28;76.55;;;32.13;;
51556;SDS011;38766;53.194;5.532;2024-02-15T12:58:04;67.10;;;29.45;;
51556;SDS011;38766;53.194;5.532;2024-02-15T13:00:34;70.70;;;31.40;;
51556;SDS011;38766;53.194;5.532;2024-02-15T13:03:05;65.43;;;29.77;;
51556;SDS011;38766;53.194;5.532;2024-02-15T13:05:35;75.72;;;31.38;;
51556;SDS011;38766;53.194;5.532;2024-02-15T13:08:01;57.10;;;28.50;;
51556;SDS011;38766;53.194;5.532;2024-02-15T13:10:30;68.80;;;31.17;;
51556;SDS011;38766;53.194;5.532;2024-02-15T13:12:58;59.95;;;29.63;;
51556;SDS011;38766;53.194;5.532;2024-02-15T13:15:24;66.45;;;28.88;;
51556;SDS011;38766;53.194;5.532;2024-02-15T13:17:57;70.00;;;30.10;;
51556;SDS011;38766;53.194;5.532;2024-02-15T13:20:24;65.80;;;30.10;;
51556;SDS011;38766;53.194;5.532;2024-02-15T13:22:57;73.40;;;31.23;;
51556;SDS011;38766;53.194;5.532;2024-02-15T13:25:26;79.97;;;30.48;;
51556;SDS011;38766;53.194;5.532;2024-02-15T13:27:53;65.85;;;31.42;;
51556;SDS011;38766;53.194;5.532;2024-02-15T13:30:18;75.25;;;31.85;;
51556;SDS011;38766;53.194;5.532;2024-02-15T13:32:48;73.35;;;31.02;;
51556;SDS011;38766;53.194;5.532;2024-02-15T13:35:14;85.72;;;33.00;;
51556;SDS011;38766;53.194;5.532;2024-02-15T13:40:07;89.95;;;36.22;;
51556;SDS011;38766;53.194;5.532;2024-02-15T13:42:49;98.43;;;36.45;;
51556;SDS011;38766;53.194;5.532;2024-02-15T13:45:20;77.25;;;33.15;;
51556;SDS011;38766;53.194;5.532;2024-02-15T13:47:55;72.65;;;33.92;;
51556;SDS011;38766;53.194;5.532;2024-02-15T13:50:21;64.90;;;29.08;;
51556;SDS011;38766;53.194;5.532;2024-02-15T13:52:48;70.07;;;30.30;;
51556;SDS011;38766;53.194;5.532;2024-02-15T13:55:15;64.35;;;30.70;;
51556;SDS011;38766;53.194;5.532;2024-02-15T13:57:43;62.28;;;29.65;;
51556;SDS011;38766;53.194;5.532;2024-02-15T14:00:10;63.92;;;29.48;;
51556;SDS011;38766;53.194;5.532;2024-02-15T14:02:53;53.83;;;28.83;;
51556;SDS011;38766;53.194;5.532;2024-02-15T14:05:19;49.40;;;25.90;;
51556;SDS011;38766;53.194;5.532;2024-02-15T14:07:50;67.32;;;27.33;;
51556;SDS011;38766;53.194;5.532;2024-02-15T14:10:20;50.45;;;25.63;;
51556;SDS011;38766;53.194;5.532;2024-02-15T14:12:47;59.17;;;24.30;;
51556;SDS011;38766;53.194;5.532;2024-02-15T14:15:14;55.08;;;23.52;;
51556;SDS011;38766;53.194;5.532;2024-02-15T14:17:40;59.00;;;23.95;;
51556;SDS011;38766;53.194;5.532;2024-02-15T14:20:06;51.97;;;22.95;;
51556;SDS011;38766;53.194;5.532;2024-02-15T14:22:38;54.92;;;25.80;;
51556;SDS011;38766;53.194;5.532;2024-02-15T14:25:23;57.72;;;23.98;;
51556;SDS011;38766;53.194;5.532;2024-02-15T14:27:50;56.55;;;25.02;;
51556;SDS011;38766;53.194;5.532;2024-02-15T14:30:19;51.70;;;24.15;;
51556;SDS011;38766;53.194;5.532;2024-02-15T14:33:03;45.35;;;24.75;;
51556;SDS011;38766;53.194;5.532;2024-02-15T14:35:32;51.47;;;24.50;;
51556;SDS011;38766;53.194;5.532;2024-02-15T14:38:02;51.92;;;23.83;;
51556;SDS011;38766;53.194;5.532;2024-02-15T14:40:34;45.13;;;23.38;;
51556;SDS011;38766;53.194;5.532;2024-02-15T14:43:01;45.25;;;23.58;;
51556;SDS011;38766;53.194;5.532;2024-02-15T14:45:29;49.30;;;23.58;;
51556;SDS011;38766;53.194;5.532;2024-02-15T14:48:07;45.55;;;23.42;;